05 Dec 2021 02:37 UTC 2021339+02:37 UTC

Overview Datums Bench Marks Data Query Site Visit Daily QC Messages Attributes

170: National Park Service - Baffin Bay

27° 17' 49" N   97° 24' 17" W
NPSBB
United States National Park Service United States National Park Service

Station Information

National Park Service - Baffin Bay
National Park Service - Baffin Bay
more pictures
 
Station Name:National Park Service - Baffin Bay
DNR ID:170
Location:27° 17' 49" N, 97° 24' 17" W

Water Level Forecasts

Latest Observations

Series Metric English Marine Observed at
Water Temperature 22.3 °C 72.1 °F 72.1 °F Dec 04 20:12 CST
00h07m ago
Salinity 25.900 psu 25.900 psu 25.900 psu Dec 04 20:12 CST
00h07m ago
pH 8.08 pH 8.08 pH 8.08 pH Dec 04 20:12 CST
00h07m ago
Turbidity 15 ntu 15 ntu 15 ntu Dec 04 20:12 CST
00h07m ago
Dissolved Oxygen 6.43 mg/L 0.000401 lb/ft3 0.000401 lb/ft3 Dec 04 20:12 CST
00h07m ago

Maps

National Park Service - Baffin Bay
All Stations in Area
Entire Network
 

Recent Observations

Date/Time Water
Temp (°F)
Sal (psu) pH (pH) Turb (ntu) DO (lb/ft3)
Dec 04 20:00 CST 72.1 25.800 8.12 11 0.000431
Dec 04 19:00 CST 72.3 25.700 8.15 8 0.000468
Dec 04 18:00 CST 72.9 25.700 8.17 9 0.000490
Dec 04 17:00 CST 73.9 25.800 8.23 10 0.000536
Dec 04 16:00 CST 74.8 25.500 8.24 11 0.000552
Dec 04 15:00 CST 73.9 25.400 8.15 9 0.000503
Dec 04 14:00 CST 73.2 25.400 8.12 9 0.000483
Dec 04 13:00 CST 72.3 25.400 8.07 10 0.000426
Dec 04 12:00 CST 71.4 25.400 8.07 9 0.000416
Dec 04 11:00 CST 70.3 25.400 8.07 10 0.000406
Dec 04 10:00 CST 70.0 25.400 8.03 11 0.000355
Dec 04 09:00 CST 69.3 25.300 8.08 10 0.000406
Dec 04 08:00 CST 69.1 25.300 8.05 7 0.000376
Dec 04 07:00 CST 69.1 25.400 8.06 7 0.000388
Dec 04 06:00 CST 69.1 25.300 8.06 6 0.000388
Dec 04 05:00 CST 69.3 25.300 8.06 7 0.000392
Dec 04 04:00 CST 69.3 25.300 8.08 6 0.000401
Dec 04 03:00 CST 69.4 25.200 8.08 6 0.000403
Dec 04 02:00 CST 69.4 25.200 8.10 6 0.000423
Dec 04 01:00 CST 69.4 25.300 8.12 6 0.000449
Dec 04 00:00 CST 69.8 25.200 8.11 8 0.000430
Dec 03 23:00 CST 69.8 25.200 8.13 7 0.000463
Dec 03 22:00 CST 70.2 25.100 8.13 7 0.000458
Dec 03 21:00 CST 70.5 25.000 8.16 9 0.000474
Dec 03 20:00 CST 70.5 25.000 8.18 8 0.000506

Historical Data Availability